createdAt,value
2023-02-27T00:01:04.390Z,3.42
2023-02-27T00:03:31.998Z,3.20
2023-02-27T00:06:00.933Z,2.90
2023-02-27T00:08:28.493Z,3.20
2023-02-27T00:10:56.137Z,3.40
2023-02-27T00:13:23.635Z,3.28
2023-02-27T00:15:51.711Z,3.10
2023-02-27T00:18:19.309Z,2.90
2023-02-27T00:20:46.829Z,2.83
2023-02-27T00:23:16.304Z,3.00
2023-02-27T00:25:43.921Z,2.90
2023-02-27T00:28:11.637Z,2.92
2023-02-27T00:30:40.073Z,3.03
2023-02-27T00:33:08.969Z,3.10
2023-02-27T00:35:36.808Z,3.08
2023-02-27T00:38:04.866Z,2.80
2023-02-27T00:40:35.744Z,3.28
2023-02-27T00:43:03.400Z,3.03
2023-02-27T00:45:31.131Z,3.00
2023-02-27T00:47:58.857Z,2.90
2023-02-27T00:50:26.412Z,3.08
2023-02-27T00:52:53.922Z,3.20
2023-02-27T00:55:22.212Z,3.42
2023-02-27T00:57:51.159Z,3.00
2023-02-27T01:00:19.457Z,3.25
2023-02-27T01:02:47.078Z,2.60
2023-02-27T01:05:15.135Z,3.08
2023-02-27T01:07:42.782Z,2.70
2023-02-27T01:10:12.598Z,2.80
2023-02-27T01:12:40.530Z,2.95
2023-02-27T01:15:11.191Z,2.90
2023-02-27T01:17:39.070Z,3.03
2023-02-27T01:20:09.241Z,2.75
2023-02-27T01:22:36.891Z,3.00
2023-02-27T01:25:04.985Z,3.33
2023-02-27T01:27:32.956Z,2.80
2023-02-27T01:30:00.654Z,2.58
2023-02-27T01:32:29.691Z,3.08
2023-02-27T01:34:57.276Z,2.87
2023-02-27T01:37:26.958Z,2.75
2023-02-27T01:39:54.517Z,2.80
2023-02-27T01:42:24.614Z,2.95
2023-02-27T01:45:25.169Z,3.20
2023-02-27T01:47:56.624Z,3.53
2023-02-27T01:50:24.818Z,2.92
2023-02-27T01:52:57.374Z,3.17
2023-02-27T01:55:27.025Z,3.03
2023-02-27T01:57:55.628Z,3.03
2023-02-27T02:00:23.939Z,2.97
2023-02-27T02:03:01.770Z,3.10
2023-02-27T02:05:31.202Z,3.00
2023-02-27T02:08:00.373Z,3.42
2023-02-27T02:10:29.086Z,3.08
2023-02-27T02:12:57.199Z,3.13
2023-02-27T02:15:33.477Z,3.35
2023-02-27T02:18:11.194Z,3.40
2023-02-27T02:21:12.252Z,2.85
2023-02-27T02:24:21.014Z,2.80
2023-02-27T02:26:59.034Z,3.17
2023-02-27T02:30:22.582Z,3.17
2023-02-27T02:33:20.301Z,3.17
2023-02-27T02:36:28.187Z,3.03
2023-02-27T02:39:10.733Z,3.00
2023-02-27T02:41:54.215Z,3.15
2023-02-27T02:44:30.811Z,3.33
2023-02-27T02:47:06.485Z,3.15
2023-02-27T02:49:44.467Z,2.97
2023-02-27T02:52:20.511Z,3.00
2023-02-27T02:54:57.166Z,3.15
2023-02-27T02:57:31.210Z,3.20
2023-02-27T03:00:05.965Z,2.90
2023-02-27T03:02:40.136Z,3.00
2023-02-27T03:05:10.975Z,3.40
2023-02-27T03:07:44.049Z,3.08
2023-02-27T03:10:17.644Z,3.40
2023-02-27T03:12:50.398Z,3.30
2023-02-27T03:15:20.897Z,2.80
2023-02-27T03:17:52.568Z,3.00
2023-02-27T03:20:24.909Z,3.35
2023-02-27T03:22:57.830Z,3.40
2023-02-27T03:25:29.599Z,3.17
2023-02-27T03:28:02.242Z,3.25
2023-02-27T03:30:34.094Z,3.47
2023-02-27T03:33:08.297Z,3.47
2023-02-27T03:35:43.090Z,3.75
2023-02-27T03:38:20.131Z,3.20
2023-02-27T03:41:01.794Z,3.50
2023-02-27T03:43:46.545Z,3.50
2023-02-27T03:46:17.680Z,3.40
2023-02-27T03:48:46.451Z,3.45
2023-02-27T03:51:16.867Z,3.45
2023-02-27T03:53:50.626Z,3.38
2023-02-27T03:56:25.794Z,3.72
2023-02-27T03:58:54.349Z,3.88
2023-02-27T04:01:22.163Z,3.75
2023-02-27T04:03:56.552Z,3.95
2023-02-27T04:07:07.525Z,3.83
2023-02-27T04:09:48.982Z,3.53
2023-02-27T04:12:35.899Z,3.25
2023-02-27T04:15:13.820Z,3.60
2023-02-27T04:17:53.411Z,3.63
2023-02-27T04:20:42.746Z,3.67
2023-02-27T04:23:17.838Z,3.90
2023-02-27T04:26:01.932Z,3.28
2023-02-27T04:28:41.571Z,3.65
2023-02-27T04:31:14.893Z,3.33
2023-02-27T04:33:49.705Z,3.50
2023-02-27T04:36:24.545Z,3.88
2023-02-27T04:38:59.840Z,3.90
2023-02-27T04:41:31.420Z,3.80
2023-02-27T04:44:02.980Z,3.50
2023-02-27T04:46:33.016Z,3.88
2023-02-27T04:49:05.351Z,4.78
2023-02-27T04:51:37.478Z,4.22
2023-02-27T04:54:10.837Z,3.85
2023-02-27T04:56:42.981Z,4.20
2023-02-27T04:59:17.367Z,3.72
2023-02-27T05:01:51.302Z,3.92
2023-02-27T05:04:22.625Z,4.05
2023-02-27T05:06:52.367Z,3.40
2023-02-27T05:09:25.650Z,4.30
2023-02-27T05:11:58.132Z,4.22
2023-02-27T05:14:31.389Z,3.80
2023-02-27T05:17:04.349Z,3.85
2023-02-27T05:19:33.620Z,4.18
2023-02-27T05:22:12.097Z,3.90
2023-02-27T05:24:47.770Z,3.83
2023-02-27T05:27:25.651Z,4.20
2023-02-27T05:29:57.639Z,4.00
2023-02-27T05:32:34.458Z,4.47
2023-02-27T05:35:09.961Z,4.10
2023-02-27T05:37:42.410Z,4.22
2023-02-27T05:40:13.462Z,4.35
2023-02-27T05:42:44.496Z,4.53
2023-02-27T05:45:18.679Z,4.68
2023-02-27T05:47:52.438Z,4.90
2023-02-27T05:50:24.178Z,5.22
2023-02-27T05:52:53.687Z,5.60
2023-02-27T05:55:25.300Z,5.53
2023-02-27T05:57:58.303Z,5.10
2023-02-27T06:00:34.370Z,4.93
2023-02-27T06:03:02.065Z,4.90
2023-02-27T06:05:30.443Z,5.15
2023-02-27T06:07:58.060Z,6.03
2023-02-27T06:10:26.021Z,5.63
2023-02-27T06:12:53.519Z,5.13
2023-02-27T06:15:21.104Z,4.60
2023-02-27T06:17:50.011Z,4.40
2023-02-27T06:20:17.902Z,4.90
2023-02-27T06:22:45.450Z,5.30
2023-02-27T06:25:13.449Z,4.93
2023-02-27T06:27:40.966Z,5.15
2023-02-27T06:30:09.727Z,5.43
2023-02-27T06:32:37.295Z,4.70
2023-02-27T06:35:07.381Z,5.13
2023-02-27T06:37:34.941Z,4.88
2023-02-27T06:40:02.583Z,4.57
2023-02-27T06:42:30.074Z,5.28
2023-02-27T06:44:57.622Z,5.10
2023-02-27T06:47:25.514Z,5.75
2023-02-27T06:49:53.071Z,4.95
2023-02-27T06:52:21.970Z,5.45
2023-02-27T06:54:49.516Z,5.88
2023-02-27T06:57:17.215Z,5.60
2023-02-27T06:59:45.343Z,5.28
2023-02-27T07:02:14.513Z,5.15
2023-02-27T07:04:43.057Z,5.50
2023-02-27T07:07:35.891Z,5.63
2023-02-27T07:10:00.011Z,5.78
2023-02-27T07:12:27.635Z,6.32
2023-02-27T07:14:55.116Z,5.65
2023-02-27T07:17:22.827Z,5.32
2023-02-27T07:19:50.384Z,5.97
2023-02-27T07:22:17.977Z,5.85
2023-02-27T07:24:45.534Z,5.10
2023-02-27T07:27:14.380Z,5.65
2023-02-27T07:29:42.216Z,5.55
2023-02-27T07:32:10.029Z,5.20
2023-02-27T07:34:37.616Z,5.60
2023-02-27T07:37:05.186Z,5.95
2023-02-27T07:39:32.959Z,6.60
2023-02-27T07:42:00.524Z,5.65
2023-02-27T07:44:29.475Z,6.45
2023-02-27T07:46:57.040Z,6.50
2023-02-27T07:49:24.606Z,5.70
2023-02-27T07:51:52.296Z,6.35
2023-02-27T07:54:20.000Z,7.35
2023-02-27T07:56:47.648Z,6.25
2023-02-27T07:59:15.160Z,6.07
2023-02-27T08:01:43.990Z,5.60
2023-02-27T08:04:11.558Z,6.10
2023-02-27T08:06:39.735Z,5.72
2023-02-27T08:09:07.789Z,8.35
2023-02-27T08:11:35.312Z,7.13
2023-02-27T08:14:03.388Z,5.90
2023-02-27T08:16:32.119Z,6.10
2023-02-27T08:19:01.957Z,5.43
2023-02-27T08:21:30.525Z,5.65
2023-02-27T08:23:58.340Z,5.70
2023-02-27T08:26:26.554Z,5.25
2023-02-27T08:28:54.372Z,5.50
2023-02-27T08:31:21.948Z,5.80
2023-02-27T08:33:55.289Z,7.40
2023-02-27T08:36:27.174Z,5.90
2023-02-27T08:38:54.850Z,5.25
2023-02-27T08:41:23.091Z,5.45
2023-02-27T08:43:50.777Z,4.80
2023-02-27T08:46:18.371Z,4.60
2023-02-27T08:48:45.903Z,4.37
2023-02-27T08:51:13.526Z,5.05
2023-02-27T08:53:42.510Z,4.28
2023-02-27T08:56:10.470Z,4.68
2023-02-27T08:58:38.039Z,4.43
2023-02-27T09:01:05.804Z,5.47
2023-02-27T09:03:33.357Z,4.47
2023-02-27T09:06:01.043Z,3.90
2023-02-27T09:08:28.589Z,4.00
2023-02-27T09:10:59.048Z,4.22
2023-02-27T09:13:27.174Z,3.50
2023-02-27T09:15:54.994Z,3.05
2023-02-27T09:18:22.977Z,3.40
2023-02-27T09:20:51.972Z,3.78
2023-02-27T09:23:20.539Z,3.60
2023-02-27T09:25:48.477Z,2.93
2023-02-27T09:28:17.479Z,2.53
2023-02-27T09:30:45.018Z,2.30
2023-02-27T09:33:12.560Z,2.60
2023-02-27T09:35:40.217Z,2.67
2023-02-27T09:38:07.804Z,2.50
2023-02-27T09:40:41.520Z,2.55
2023-02-27T09:43:15.516Z,2.55
2023-02-27T09:45:47.953Z,2.70
2023-02-27T09:48:25.379Z,2.67
2023-02-27T09:50:53.409Z,2.87
2023-02-27T09:53:27.320Z,3.40
2023-02-27T09:55:58.396Z,3.60
2023-02-27T09:58:44.468Z,3.25
2023-02-27T10:01:20.102Z,3.00
2023-02-27T10:04:13.852Z,3.73
2023-02-27T10:06:45.308Z,3.10
2023-02-27T10:09:25.840Z,3.20
2023-02-27T10:12:07.327Z,2.80
2023-02-27T10:14:43.106Z,2.97
2023-02-27T10:17:20.214Z,3.00
2023-02-27T10:19:49.377Z,2.80
2023-02-27T10:22:24.470Z,2.70
2023-02-27T10:24:55.735Z,3.17
2023-02-27T10:27:24.257Z,3.25
2023-02-27T10:29:54.196Z,3.00
2023-02-27T10:32:26.704Z,3.70
2023-02-27T10:35:01.171Z,3.10
2023-02-27T10:37:30.279Z,3.05
2023-02-27T10:40:00.388Z,3.20
2023-02-27T10:42:33.016Z,3.40
2023-02-27T10:45:00.623Z,4.20
2023-02-27T10:47:29.714Z,3.33
2023-02-27T10:50:00.253Z,3.42
2023-02-27T10:52:28.233Z,3.90
2023-02-27T10:54:55.871Z,3.67
2023-02-27T10:57:29.028Z,3.35
2023-02-27T10:59:59.501Z,3.17
2023-02-27T11:02:33.158Z,3.63
2023-02-27T11:05:01.362Z,3.65
2023-02-27T11:07:32.814Z,3.87
2023-02-27T11:10:03.516Z,3.30
2023-02-27T11:12:32.840Z,2.95
2023-02-27T11:15:02.505Z,2.60
2023-02-27T11:17:34.001Z,2.60
2023-02-27T11:20:05.981Z,2.67
2023-02-27T11:22:34.394Z,2.30
2023-02-27T11:25:19.717Z,2.10
2023-02-27T11:27:48.109Z,2.28
2023-02-27T11:30:27.977Z,2.50
2023-02-27T11:33:00.005Z,2.50
2023-02-27T11:35:31.041Z,3.28
2023-02-27T11:38:01.974Z,3.13
2023-02-27T11:40:32.944Z,3.58
2023-02-27T11:43:04.862Z,2.75
2023-02-27T11:46:04.509Z,3.30
2023-02-27T11:48:28.891Z,2.72
2023-02-27T11:51:09.600Z,2.40
2023-02-27T11:54:05.380Z,2.47
2023-02-27T11:56:36.425Z,2.50
2023-02-27T11:59:14.726Z,2.20
2023-02-27T12:01:50.472Z,2.45
2023-02-27T12:04:25.265Z,1.98
2023-02-27T12:06:56.675Z,2.05
2023-02-27T12:09:39.430Z,2.28
2023-02-27T12:12:17.342Z,2.00
2023-02-27T12:14:53.434Z,2.22
2023-02-27T12:17:26.380Z,1.95
2023-02-27T12:20:07.698Z,2.00
2023-02-27T12:22:41.484Z,2.40
2023-02-27T12:25:16.550Z,1.97
2023-02-27T12:27:49.830Z,2.20
2023-02-27T12:30:22.152Z,2.20
2023-02-27T12:32:55.704Z,2.40
2023-02-27T12:35:28.907Z,2.20
2023-02-27T12:37:57.578Z,2.20
2023-02-27T12:40:31.109Z,1.85
2023-02-27T12:43:15.636Z,2.10
2023-02-27T12:46:08.682Z,2.10
2023-02-27T12:48:53.027Z,2.13
2023-02-27T12:51:37.830Z,2.17
2023-02-27T12:54:18.673Z,1.90
2023-02-27T12:56:56.634Z,1.90
2023-02-27T12:59:40.971Z,1.73
2023-02-27T13:02:26.903Z,2.00
2023-02-27T13:05:04.738Z,2.13
2023-02-27T13:07:37.802Z,2.00
2023-02-27T13:10:15.046Z,2.10
2023-02-27T13:12:47.987Z,2.10
2023-02-27T13:15:22.949Z,2.30
2023-02-27T13:17:55.517Z,1.90
2023-02-27T13:20:33.329Z,2.00
2023-02-27T13:23:12.465Z,1.73
2023-02-27T13:25:44.582Z,2.05
2023-02-27T13:28:17.128Z,2.10
2023-02-27T13:30:53.697Z,2.00
2023-02-27T13:33:30.347Z,2.28
2023-02-27T13:36:07.200Z,2.08
2023-02-27T13:38:43.049Z,2.80
2023-02-27T13:41:37.063Z,1.98
2023-02-27T13:44:46.212Z,2.00
2023-02-27T13:47:39.600Z,2.38
2023-02-27T13:50:36.983Z,2.20
2023-02-27T13:53:11.317Z,2.20
2023-02-27T13:55:40.308Z,2.10
2023-02-27T13:58:17.680Z,2.10
2023-02-27T14:00:56.310Z,2.03
2023-02-27T14:03:27.487Z,2.20
2023-02-27T14:05:59.273Z,1.85
2023-02-27T14:08:29.336Z,2.00
2023-02-27T14:11:02.648Z,2.00
2023-02-27T14:13:58.828Z,1.90
2023-02-27T14:16:54.422Z,1.85
2023-02-27T14:19:51.221Z,2.30
2023-02-27T14:22:37.697Z,2.10
2023-02-27T14:25:19.326Z,2.20
2023-02-27T14:27:56.875Z,2.30
2023-02-27T14:30:30.195Z,2.33
2023-02-27T14:33:03.598Z,2.10
2023-02-27T14:35:31.608Z,2.25
2023-02-27T14:38:03.507Z,1.90
2023-02-27T14:40:37.794Z,2.28
2023-02-27T14:43:15.894Z,2.40
2023-02-27T14:45:43.448Z,2.40
2023-02-27T14:48:11.536Z,3.38
2023-02-27T14:50:42.000Z,3.83
2023-02-27T14:53:23.902Z,4.13
2023-02-27T14:55:55.809Z,19.70
2023-02-27T14:58:25.582Z,4.95
2023-02-27T15:01:04.279Z,3.42
2023-02-27T15:03:37.018Z,7.00
2023-02-27T15:06:13.400Z,15.73
2023-02-27T15:08:46.062Z,19.77
2023-02-27T15:11:16.227Z,17.02
2023-02-27T15:13:46.191Z,16.52
2023-02-27T15:16:21.937Z,5.30
2023-02-27T15:18:50.942Z,9.02
2023-02-27T15:21:20.724Z,9.25
2023-02-27T15:23:55.820Z,7.15
2023-02-27T15:26:23.637Z,6.88
2023-02-27T15:28:52.670Z,4.70
2023-02-27T15:31:23.478Z,3.30
2023-02-27T15:33:52.118Z,3.10
2023-02-27T15:36:23.555Z,4.20
2023-02-27T15:39:08.157Z,5.47
2023-02-27T15:41:36.955Z,3.80
2023-02-27T15:44:06.319Z,3.58
2023-02-27T15:46:34.287Z,3.20
2023-02-27T15:49:02.095Z,3.80
2023-02-27T15:51:30.019Z,3.40
2023-02-27T15:54:00.370Z,5.87
2023-02-27T15:56:32.453Z,3.80
2023-02-27T15:59:01.648Z,4.65
2023-02-27T16:01:34.824Z,5.90
2023-02-27T16:04:06.012Z,9.68
2023-02-27T16:06:36.799Z,10.00
2023-02-27T16:09:07.555Z,5.18
2023-02-27T16:11:37.193Z,3.85
2023-02-27T16:14:05.852Z,5.88
2023-02-27T16:16:37.342Z,3.30
2023-02-27T16:19:16.692Z,3.60
2023-02-27T16:22:06.582Z,3.50
2023-02-27T16:24:34.758Z,2.80
2023-02-27T16:27:02.813Z,2.70
2023-02-27T16:29:35.606Z,4.03
2023-02-27T16:32:05.586Z,2.70
2023-02-27T16:34:45.262Z,2.92
2023-02-27T16:37:20.406Z,7.32
2023-02-27T16:39:49.644Z,4.25
2023-02-27T16:42:17.210Z,2.70
2023-02-27T16:44:44.706Z,2.40
2023-02-27T16:47:13.817Z,3.40
2023-02-27T16:49:44.239Z,3.10
2023-02-27T16:52:12.149Z,3.05
2023-02-27T16:54:39.758Z,2.40
2023-02-27T16:57:07.887Z,3.00
2023-02-27T16:59:37.283Z,2.88
2023-02-27T17:02:07.292Z,2.53
2023-02-27T17:04:36.336Z,3.03
2023-02-27T17:07:06.481Z,3.10
2023-02-27T17:09:35.022Z,2.67
2023-02-27T17:12:02.614Z,2.40
2023-02-27T17:14:30.117Z,2.63
2023-02-27T17:16:59.241Z,2.33
2023-02-27T17:19:26.939Z,2.80
2023-02-27T17:21:55.789Z,2.60
2023-02-27T17:24:23.642Z,2.90
2023-02-27T17:26:52.523Z,2.80
2023-02-27T17:29:20.732Z,2.50
2023-02-27T17:31:48.442Z,2.50
2023-02-27T17:34:16.838Z,2.60
2023-02-27T17:36:44.712Z,2.78
2023-02-27T17:39:14.750Z,2.65
2023-02-27T17:41:44.264Z,2.83
2023-02-27T17:44:12.628Z,2.40
2023-02-27T17:46:41.000Z,3.67
2023-02-27T17:49:09.540Z,3.08
2023-02-27T17:51:37.028Z,2.90
2023-02-27T17:54:06.270Z,2.58
2023-02-27T17:56:36.916Z,2.85
2023-02-27T17:59:04.750Z,3.10
2023-02-27T18:01:32.442Z,2.90
2023-02-27T18:04:00.039Z,3.38
2023-02-27T18:06:28.598Z,3.00
2023-02-27T18:08:56.368Z,3.17
2023-02-27T18:11:24.274Z,3.10
2023-02-27T18:13:53.150Z,3.10
2023-02-27T18:16:22.128Z,3.10
2023-02-27T18:18:49.966Z,3.25
2023-02-27T18:21:20.924Z,3.30
2023-02-27T18:23:49.578Z,3.43
2023-02-27T18:26:28.905Z,3.35
2023-02-27T18:29:00.950Z,6.95
2023-02-27T18:31:31.626Z,4.20
2023-02-27T18:34:00.045Z,4.20
2023-02-27T18:36:28.291Z,3.33
2023-02-27T18:38:55.959Z,3.70
2023-02-27T18:41:23.505Z,4.50
2023-02-27T18:43:51.230Z,4.70
2023-02-27T18:46:20.536Z,4.45
2023-02-27T18:48:48.375Z,4.30
2023-02-27T18:51:17.544Z,4.10
2023-02-27T18:53:48.558Z,4.35
2023-02-27T18:56:18.147Z,4.43
2023-02-27T18:58:46.186Z,4.15
2023-02-27T19:01:21.720Z,4.90
2023-02-27T19:03:49.856Z,4.68
2023-02-27T19:06:17.739Z,4.78
2023-02-27T19:08:46.087Z,5.47
2023-02-27T19:11:22.173Z,5.00
2023-02-27T19:13:49.671Z,5.50
2023-02-27T19:16:17.385Z,5.57
2023-02-27T19:18:46.292Z,5.50
2023-02-27T19:21:13.866Z,5.82
2023-02-27T19:23:41.453Z,5.90
2023-02-27T19:26:09.014Z,7.30
2023-02-27T19:28:36.575Z,6.18
2023-02-27T19:31:07.672Z,6.32
2023-02-27T19:33:35.288Z,6.63
2023-02-27T19:36:07.544Z,6.15
2023-02-27T19:38:35.166Z,5.87
2023-02-27T19:41:03.106Z,5.43
2023-02-27T19:43:31.267Z,5.97
2023-02-27T19:45:59.103Z,5.07
2023-02-27T19:48:27.183Z,5.53
2023-02-27T19:50:54.695Z,6.00
2023-02-27T19:53:23.546Z,5.93
2023-02-27T19:55:58.848Z,5.95
2023-02-27T19:58:26.348Z,5.70
2023-02-27T20:00:54.002Z,5.95
2023-02-27T20:03:21.826Z,5.17
2023-02-27T20:05:49.631Z,5.82
2023-02-27T20:08:17.660Z,5.90
2023-02-27T20:10:54.388Z,5.85
2023-02-27T20:13:22.433Z,5.28
2023-02-27T20:15:56.721Z,5.53
2023-02-27T20:18:24.395Z,5.40
2023-02-27T20:20:59.893Z,5.32
2023-02-27T20:23:27.529Z,5.75
2023-02-27T20:25:56.639Z,5.90
2023-02-27T20:28:24.442Z,5.70
2023-02-27T20:30:52.029Z,7.00
2023-02-27T20:33:19.609Z,6.85
2023-02-27T20:35:47.156Z,7.68
2023-02-27T20:38:16.397Z,7.13
2023-02-27T20:40:43.982Z,6.40
2023-02-27T20:43:12.822Z,6.80
2023-02-27T20:45:41.662Z,8.32
2023-02-27T20:48:09.358Z,8.15
2023-02-27T20:50:36.866Z,6.78
2023-02-27T20:53:04.481Z,11.47
2023-02-27T20:55:32.057Z,8.27
2023-02-27T20:57:59.651Z,11.55
2023-02-27T21:00:28.578Z,11.27
2023-02-27T21:02:56.240Z,10.90
2023-02-27T21:05:23.786Z,8.97
2023-02-27T21:07:51.557Z,7.70
2023-02-27T21:10:19.462Z,8.07
2023-02-27T21:12:46.990Z,7.32
2023-02-27T21:15:14.644Z,7.78
2023-02-27T21:17:43.580Z,7.97
2023-02-27T21:20:12.291Z,6.70
2023-02-27T21:22:39.841Z,6.45
2023-02-27T21:25:07.909Z,5.97
2023-02-27T21:27:35.508Z,5.80
2023-02-27T21:30:03.229Z,5.97
2023-02-27T21:32:30.888Z,5.95
2023-02-27T21:34:59.773Z,6.20
2023-02-27T21:37:27.410Z,5.68
2023-02-27T21:39:57.066Z,6.00
2023-02-27T21:42:24.646Z,5.80
2023-02-27T21:44:52.228Z,5.22
2023-02-27T21:47:20.716Z,6.00
2023-02-27T21:49:48.257Z,6.03
2023-02-27T21:52:17.117Z,5.90
2023-02-27T21:54:44.964Z,5.87
2023-02-27T21:57:12.617Z,5.53
2023-02-27T21:59:41.609Z,5.05
2023-02-27T22:02:13.325Z,5.65
2023-02-27T22:04:41.029Z,6.35
2023-02-27T22:07:11.138Z,5.13
2023-02-27T22:09:40.356Z,4.97
2023-02-27T22:12:09.005Z,4.90
2023-02-27T22:14:36.569Z,4.97
2023-02-27T22:17:04.234Z,5.38
2023-02-27T22:19:31.788Z,5.60
2023-02-27T22:21:59.358Z,5.55
2023-02-27T22:24:26.927Z,5.38
2023-02-27T22:26:55.842Z,5.38
2023-02-27T22:29:23.613Z,6.03
2023-02-27T22:31:51.387Z,5.50
2023-02-27T22:34:19.407Z,5.72
2023-02-27T22:36:48.490Z,5.63
2023-02-27T22:39:16.025Z,5.70
2023-02-27T22:41:43.891Z,5.50
2023-02-27T22:44:14.690Z,6.17
2023-02-27T22:46:44.158Z,5.53
2023-02-27T22:49:13.930Z,6.80
2023-02-27T22:51:41.854Z,5.53
2023-02-27T22:54:10.503Z,5.60
2023-02-27T22:56:38.471Z,5.70
2023-02-27T22:59:06.648Z,5.25
2023-02-27T23:01:37.399Z,4.80
2023-02-27T23:04:07.125Z,4.65
2023-02-27T23:06:36.786Z,4.65
2023-02-27T23:09:07.487Z,4.60
2023-02-27T23:11:35.334Z,3.70
2023-02-27T23:14:02.988Z,3.58
2023-02-27T23:16:30.604Z,3.67
2023-02-27T23:19:00.697Z,3.90
2023-02-27T23:21:34.141Z,3.47
2023-02-27T23:24:04.204Z,4.00
2023-02-27T23:26:31.739Z,3.50
2023-02-27T23:28:59.302Z,4.00
2023-02-27T23:31:27.644Z,3.38
2023-02-27T23:33:55.439Z,3.80
2023-02-27T23:36:24.421Z,3.55
2023-02-27T23:38:51.983Z,3.53
2023-02-27T23:41:20.822Z,4.10
2023-02-27T23:44:10.082Z,3.50
2023-02-27T23:46:38.061Z,3.60
2023-02-27T23:49:05.681Z,3.67
2023-02-27T23:51:34.973Z,3.60
2023-02-27T23:54:03.423Z,4.15
2023-02-27T23:56:31.808Z,3.40
2023-02-27T23:59:01.985Z,3.70
